Time;durP1;ratioP1;P1;durP2;ratioP2;P2;SDS_P1;SDS_P2;PMS_P1;PMS_P2;Temp;Humidity;BMP_temperature;BMP_pressure;BME280_temperature;BME280_humidity;BME280_pressure;Samples;Min_cycle;Max_cycle;Signal;HPM_P1;HPM_P2
2023/07/03 00:00:11;;;;;;;2.40;2.20;;;27.00;53.50;;;;;;5014346;28;20026;-74
2023/07/03 00:02:38;;;;;;;2.40;2.20;;;27.00;53.60;;;;;;5012540;28;20038;-75
2023/07/03 00:05:06;;;;;;;2.13;1.95;;;27.00;53.60;;;;;;5014152;28;20040;-75
2023/07/03 00:07:32;;;;;;;2.20;2.00;;;27.00;53.70;;;;;;5013929;28;20440;-75
2023/07/03 00:09:58;;;;;;;1.95;1.85;;;27.00;53.70;;;;;;5012974;28;20357;-75
2023/07/03 00:12:24;;;;;;;2.40;2.20;;;27.00;53.70;;;;;;5014059;28;20053;-75
2023/07/03 00:14:49;;;;;;;2.08;1.98;;;27.00;53.70;;;;;;5013800;28;20037;-75
2023/07/03 00:17:15;;;;;;;2.05;1.85;;;27.00;53.70;;;;;;5012761;28;20468;-74
2023/07/03 00:19:41;;;;;;;2.22;2.03;;;27.00;53.70;;;;;;5012765;28;20468;-74
2023/07/03 00:22:07;;;;;;;2.00;1.90;;;27.00;53.70;;;;;;5013798;28;20109;-75
2023/07/03 00:24:33;;;;;;;2.17;1.98;;;27.00;53.70;;;;;;5014077;28;20029;-74
2023/07/03 00:26:59;;;;;;;2.70;1.98;;;27.00;53.70;;;;;;5013940;28;20030;-74
2023/07/03 00:29:29;;;;;;;1.83;1.73;;;27.00;53.70;;;;;;5012656;28;20041;-74
2023/07/03 00:31:54;;;;;;;1.88;1.77;;;27.00;53.80;;;;;;5013810;28;20384;-74
2023/07/03 00:34:20;;;;;;;2.35;2.15;;;27.00;53.80;;;;;;5014424;28;20037;-74
2023/07/03 00:36:47;;;;;;;2.25;2.05;;;27.00;53.80;;;;;;5012786;28;20026;-74
2023/07/03 00:39:14;;;;;;;2.00;1.90;;;27.00;53.80;;;;;;5013469;28;20464;-74
2023/07/03 00:41:41;;;;;;;2.22;2.03;;;27.00;53.90;;;;;;5013703;28;20037;-73
2023/07/03 00:44:15;;;;;;;2.25;2.05;;;26.90;53.90;;;;;;5013168;28;20060;-73
2023/07/03 00:46:43;;;;;;;1.90;1.80;;;27.00;54.00;;;;;;5012587;28;20124;-74
2023/07/03 00:49:09;;;;;;;2.40;2.03;;;26.90;53.90;;;;;;5013844;28;20030;-74
2023/07/03 00:51:42;;;;;;;2.20;2.00;;;26.90;54.00;;;;;;5013720;28;20029;-73
2023/07/03 00:54:08;;;;;;;2.08;1.90;;;26.90;54.10;;;;;;5013661;28;20102;-74
2023/07/03 00:56:34;;;;;;;2.30;2.10;;;26.90;54.10;;;;;;5013328;28;20021;-75
2023/07/03 00:59:01;;;;;;;1.98;1.80;;;26.90;54.10;;;;;;5013356;28;20099;-74
2023/07/03 01:01:55;;;;;;;2.22;2.03;;;26.90;54.20;;;;;;5013681;28;20120;-74
2023/07/03 01:04:37;;;;;;;2.35;2.00;;;26.90;54.30;;;;;;5013173;28;20038;-75
2023/07/03 01:07:08;;;;;;;2.15;1.95;;;26.90;54.30;;;;;;5013192;28;20473;-74
2023/07/03 01:09:50;;;;;;;2.00;1.90;;;26.90;54.30;;;;;;5013835;28;20022;-74
2023/07/03 01:12:17;;;;;;;1.88;1.77;;;26.90;54.40;;;;;;5013773;28;20052;-75
2023/07/03 01:14:44;;;;;;;1.90;1.80;;;26.80;54.30;;;;;;5013720;28;20025;-75
2023/07/03 01:17:12;;;;;;;2.30;2.10;;;26.80;54.40;;;;;;5013387;28;20030;-74
2023/07/03 01:19:41;;;;;;;2.90;1.90;;;26.80;54.40;;;;;;5013609;28;20111;-75
2023/07/03 01:22:18;;;;;;;2.17;1.98;;;26.80;54.50;;;;;;5012079;28;20509;-75
2023/07/03 01:24:56;;;;;;;2.00;1.90;;;26.80;54.60;;;;;;5013606;28;20090;-75
2023/07/03 01:27:27;;;;;;;3.38;2.08;;;26.80;54.60;;;;;;5013572;28;20438;-75
2023/07/03 01:29:54;;;;;;;2.08;1.90;;;26.80;54.60;;;;;;5013358;28;20381;-75
2023/07/03 01:32:22;;;;;;;2.38;2.15;;;26.80;54.70;;;;;;5011749;28;20107;-74
2023/07/03 01:34:53;;;;;;;2.30;2.10;;;26.80;54.70;;;;;;5013203;28;20087;-74
2023/07/03 01:37:22;;;;;;;1.90;1.80;;;26.80;54.70;;;;;;5013319;28;20022;-75
2023/07/03 01:39:49;;;;;;;2.10;1.90;;;26.70;54.70;;;;;;5013228;28;20600;-74
2023/07/03 01:42:15;;;;;;;2.20;2.00;;;26.70;54.80;;;;;;5015303;28;20083;-75
2023/07/03 01:44:41;;;;;;;1.92;1.83;;;26.70;54.80;;;;;;5016565;28;20116;-73
2023/07/03 01:47:09;;;;;;;2.92;1.95;;;26.70;54.90;;;;;;5016542;28;20419;-74
2023/07/03 01:49:36;;;;;;;2.10;2.00;;;26.70;54.90;;;;;;5016850;28;20034;-74
2023/07/03 01:52:37;;;;;;;2.00;1.90;;;26.70;54.90;;;;;;5016772;28;20349;-74
2023/07/03 01:55:19;;;;;;;1.98;1.88;;;26.70;55.20;;;;;;5009285;28;20045;-74
2023/07/03 01:57:59;;;;;;;2.08;1.90;;;26.70;55.10;;;;;;5016635;28;20103;-74
2023/07/03 02:00:48;;;;;;;2.05;1.90;;;26.70;55.00;;;;;;5015474;28;20468;-74
2023/07/03 02:03:23;;;;;;;2.53;2.30;;;26.60;55.10;;;;;;5015947;28;20491;-74
2023/07/03 02:05:51;;;;;;;2.17;1.98;;;26.60;55.10;;;;;;5016765;28;20112;-74
2023/07/03 02:08:19;;;;;;;2.45;2.20;;;26.60;55.10;;;;;;5016100;28;20069;-74
2023/07/03 02:10:45;;;;;;;2.15;1.83;;;26.60;55.20;;;;;;5016150;28;20483;-74
2023/07/03 02:13:10;;;;;;;2.30;2.10;;;26.50;55.20;;;;;;5016096;28;20029;-74
2023/07/03 02:15:36;;;;;;;2.35;2.15;;;26.50;55.30;;;;;;5016217;28;20419;-74
2023/07/03 02:18:02;;;;;;;2.10;2.00;;;26.50;55.30;;;;;;5015938;28;20022;-74
2023/07/03 02:20:28;;;;;;;2.42;2.17;;;26.50;55.40;;;;;;5016277;28;20073;-74
2023/07/03 02:22:54;;;;;;;2.05;1.95;;;26.50;55.40;;;;;;5014749;28;20109;-75
2023/07/03 02:25:20;;;;;;;1.92;1.83;;;26.50;55.50;;;;;;5014804;28;20029;-75
2023/07/03 02:27:45;;;;;;;2.30;2.10;;;26.50;55.50;;;;;;5016030;28;20058;-74
2023/07/03 02:30:12;;;;;;;2.10;1.95;;;26.50;55.60;;;;;;5015637;28;20026;-75
2023/07/03 02:32:39;;;;;;;2.03;1.88;;;26.50;55.60;;;;;;5015613;28;20116;-75
2023/07/03 02:35:06;;;;;;;2.30;2.00;;;26.50;55.70;;;;;;5015751;28;20034;-75
2023/07/03 02:37:32;;;;;;;2.30;2.10;;;26.50;55.70;;;;;;5015599;28;20048;-75
2023/07/03 02:39:58;;;;;;;2.70;2.50;;;26.50;55.80;;;;;;5015637;28;20029;-75
2023/07/03 02:42:24;;;;;;;2.25;2.05;;;26.50;55.80;;;;;;5015558;28;20022;-74
2023/07/03 02:44:51;;;;;;;2.30;2.10;;;26.50;55.90;;;;;;5015606;28;20072;-74
2023/07/03 02:47:17;;;;;;;2.30;2.00;;;26.50;55.90;;;;;;5015470;28;20026;-74
2023/07/03 02:49:43;;;;;;;2.40;2.20;;;26.50;55.90;;;;;;5015631;28;20037;-74
2023/07/03 02:52:08;;;;;;;2.00;1.90;;;26.50;56.00;;;;;;5014209;28;20392;-75
2023/07/03 02:54:34;;;;;;;2.40;2.20;;;26.50;56.60;;;;;;5015655;28;20488;-74
2023/07/03 02:57:00;;;;;;;2.40;2.20;;;26.50;56.00;;;;;;5015121;28;20053;-74
2023/07/03 02:59:25;;;;;;;2.33;2.13;;;26.50;56.00;;;;;;5015349;28;20493;-74
2023/07/03 03:01:51;;;;;;;2.30;2.10;;;26.60;56.10;;;;;;5014797;28;20100;-74
2023/07/03 03:04:17;;;;;;;2.40;2.20;;;26.60;56.00;;;;;;5015128;28;20029;-74
2023/07/03 03:06:45;;;;;;;2.10;1.90;;;26.60;56.10;;;;;;5014833;28;20464;-74
2023/07/03 03:09:10;;;;;;;2.40;2.20;;;26.60;56.20;;;;;;5015155;28;20029;-74
2023/07/03 03:11:37;;;;;;;2.42;2.05;;;26.60;56.60;;;;;;5015163;28;20026;-74
2023/07/03 03:14:02;;;;;;;2.50;2.30;;;26.70;56.00;;;;;;5015173;28;20061;-74
2023/07/03 03:16:28;;;;;;;2.30;2.10;;;26.60;56.00;;;;;;5015374;28;20030;-74
2023/07/03 03:18:54;;;;;;;2.40;2.20;;;26.70;56.00;;;;;;5015187;28;20026;-74
2023/07/03 03:21:19;;;;;;;2.33;2.10;;;26.70;56.00;;;;;;5014724;28;20026;-74
2023/07/03 03:23:46;;;;;;;2.35;2.08;;;26.70;56.00;;;;;;5015095;28;20034;-74
2023/07/03 03:26:11;;;;;;;2.40;2.20;;;26.70;56.00;;;;;;5014655;28;20030;-74
2023/07/03 03:28:37;;;;;;;2.40;2.20;;;26.70;56.00;;;;;;5014701;28;20041;-74
2023/07/03 03:31:06;;;;;;;2.65;2.45;;;26.80;56.00;;;;;;5014643;28;20041;-74
2023/07/03 03:33:31;;;;;;;2.92;2.70;;;26.80;56.00;;;;;;5015017;28;20487;-74
2023/07/03 03:35:57;;;;;;;4.38;3.33;;;26.80;56.00;;;;;;5015657;28;20034;-76
2023/07/03 03:38:22;;;;;;;4.13;3.17;;;26.80;56.00;;;;;;5015022;28;20041;-74
2023/07/03 03:40:56;;;;;;;4.10;3.70;;;26.80;56.00;;;;;;5014668;28;20387;-74
2023/07/03 03:43:22;;;;;;;4.72;4.18;;;26.80;56.10;;;;;;5015541;28;20030;-75
2023/07/03 03:45:59;;;;;;;4.38;3.72;;;26.90;56.10;;;;;;5014448;28;20132;-75
2023/07/03 03:48:26;;;;;;;3.97;3.58;;;26.80;56.10;;;;;;5014648;28;20456;-75
2023/07/03 03:50:55;;;;;;;3.55;3.25;;;26.80;56.00;;;;;;5013032;28;20029;-75
2023/07/03 03:53:22;;;;;;;3.88;3.33;;;26.90;56.10;;;;;;5014102;28;20464;-75
2023/07/03 03:55:49;;;;;;;3.80;3.20;;;26.90;56.10;;;;;;5013976;28;20369;-75
2023/07/03 03:58:15;;;;;;;3.05;2.75;;;26.90;56.10;;;;;;5014341;28;20029;-75
2023/07/03 04:00:42;;;;;;;2.75;2.55;;;26.90;56.10;;;;;;5013034;28;20353;-75
2023/07/03 04:03:08;;;;;;;2.90;2.65;;;26.90;56.10;;;;;;5014097;28;20076;-74
2023/07/03 04:05:33;;;;;;;2.78;2.55;;;27.00;56.10;;;;;;5014119;28;20057;-75
2023/07/03 04:07:59;;;;;;;2.72;2.35;;;27.00;56.10;;;;;;5013980;28;20028;-75
2023/07/03 04:10:25;;;;;;;2.90;2.60;;;27.10;56.10;;;;;;5012517;28;20033;-74
2023/07/03 04:12:51;;;;;;;4.28;3.25;;;27.10;56.00;;;;;;5012650;28;20447;-74
2023/07/03 04:15:17;;;;;;;3.17;2.88;;;27.10;56.00;;;;;;5013943;28;20443;-75
2023/07/03 04:17:42;;;;;;;3.88;3.05;;;27.20;56.00;;;;;;5012573;28;20026;-74
2023/07/03 04:20:13;;;;;;;3.40;3.10;;;27.20;55.90;;;;;;5013741;28;20025;-75
2023/07/03 04:22:40;;;;;;;3.28;2.97;;;27.30;55.90;;;;;;5012806;28;20026;-74
2023/07/03 04:25:07;;;;;;;3.10;2.80;;;27.30;55.80;;;;;;5013585;28;20022;-75
2023/07/03 04:27:33;;;;;;;2.97;2.70;;;27.40;55.80;;;;;;5014234;28;20058;-75
2023/07/03 04:29:58;;;;;;;3.03;2.72;;;27.40;55.70;;;;;;5013501;28;20499;-74
2023/07/03 04:32:24;;;;;;;2.95;2.70;;;27.50;55.70;;;;;;5012300;28;20038;-74
2023/07/03 04:34:50;;;;;;;3.00;2.70;;;27.50;55.70;;;;;;5013586;28;20037;-74
2023/07/03 04:37:15;;;;;;;3.05;2.70;;;27.50;55.60;;;;;;5013549;28;20056;-74
2023/07/03 04:39:41;;;;;;;2.85;2.55;;;27.60;55.60;;;;;;5013663;28;20092;-74
2023/07/03 04:42:07;;;;;;;2.65;2.45;;;27.60;55.50;;;;;;5014075;28;20034;-74
2023/07/03 04:44:33;;;;;;;2.70;2.45;;;27.60;55.50;;;;;;5012189;28;20061;-74
2023/07/03 04:47:04;;;;;;;2.78;2.45;;;27.60;55.50;;;;;;5012533;28;20084;-74
2023/07/03 04:49:31;;;;;;;2.75;2.53;;;27.60;55.40;;;;;;5012362;28;20026;-74
2023/07/03 04:51:58;;;;;;;2.90;2.60;;;27.70;55.50;;;;;;5013227;28;20034;-74
2023/07/03 04:54:24;;;;;;;2.92;2.63;;;27.70;55.50;;;;;;5013629;28;20037;-74
2023/07/03 04:56:50;;;;;;;4.95;2.60;;;27.70;55.50;;;;;;5013644;28;20032;-74
2023/07/03 04:59:15;;;;;;;2.75;2.45;;;27.70;55.40;;;;;;5013416;28;20026;-74
2023/07/03 05:01:42;;;;;;;2.80;2.50;;;27.70;55.40;;;;;;5013452;28;20056;-75
2023/07/03 05:04:12;;;;;;;2.58;2.38;;;27.80;55.50;;;;;;5013023;28;20037;-75
2023/07/03 05:06:38;;;;;;;2.88;2.58;;;27.70;55.40;;;;;;5013340;28;20452;-74
2023/07/03 05:09:04;;;;;;;3.65;2.60;;;27.70;55.40;;;;;;5012186;28;20385;-75
2023/07/03 05:11:33;;;;;;;2.90;2.60;;;27.80;55.50;;;;;;5013486;28;20159;-75
2023/07/03 05:13:59;;;;;;;2.90;2.45;;;27.70;55.40;;;;;;5013355;28;20087;-74
2023/07/03 05:16:25;;;;;;;4.53;2.70;;;27.80;55.50;;;;;;5016001;28;20113;-74
2023/07/03 05:18:51;;;;;;;2.55;2.35;;;27.80;56.10;;;;;;5017116;28;20033;-75
2023/07/03 05:21:16;;;;;;;3.10;2.75;;;27.70;55.40;;;;;;5016761;28;20058;-74
2023/07/03 05:23:42;;;;;;;2.88;2.35;;;27.80;55.50;;;;;;5017013;28;20029;-74
2023/07/03 05:26:08;;;;;;;2.72;2.40;;;27.80;55.50;;;;;;5016733;28;20467;-75
2023/07/03 05:28:34;;;;;;;2.58;2.38;;;27.80;55.50;;;;;;5016627;28;20041;-75
2023/07/03 05:31:00;;;;;;;2.53;2.33;;;27.80;55.50;;;;;;5016742;28;20029;-75
2023/07/03 05:33:27;;;;;;;2.55;2.35;;;27.80;55.50;;;;;;5015041;28;20495;-75
2023/07/03 05:35:53;;;;;;;2.50;2.30;;;27.80;55.40;;;;;;5016582;28;20212;-75
2023/07/03 05:38:19;;;;;;;3.60;3.08;;;27.80;55.40;;;;;;5016941;28;20061;-75
2023/07/03 05:40:45;;;;;;;4.70;3.67;;;27.90;55.50;;;;;;5017083;28;20120;-74
2023/07/03 05:43:11;;;;;;;4.60;3.13;;;27.90;55.50;;;;;;5016493;28;20034;-74
2023/07/03 05:45:36;;;;;;;3.70;3.15;;;27.90;55.50;;;;;;5014821;28;20057;-75
2023/07/03 05:48:02;;;;;;;3.05;2.70;;;27.90;55.40;;;;;;5015031;28;20113;-74
2023/07/03 05:50:28;;;;;;;2.90;2.70;;;28.00;55.50;;;;;;5016166;28;20050;-75
2023/07/03 05:52:54;;;;;;;3.58;2.70;;;28.00;55.40;;;;;;5016150;28;20026;-76
2023/07/03 05:55:21;;;;;;;3.25;2.63;;;28.00;55.30;;;;;;5016622;28;20084;-77
2023/07/03 05:57:48;;;;;;;2.85;2.65;;;28.00;55.30;;;;;;5016540;28;20462;-75
2023/07/03 06:00:14;;;;;;;3.85;2.70;;;28.10;55.30;;;;;;5016306;28;20452;-75
2023/07/03 06:02:44;;;;;;;3.05;2.60;;;28.10;55.30;;;;;;5015025;28;20443;-75
2023/07/03 06:05:11;;;;;;;2.63;2.42;;;28.10;55.30;;;;;;5016878;28;20122;-75
2023/07/03 06:07:38;;;;;;;2.58;2.38;;;28.20;55.30;;;;;;5014999;28;20491;-75
2023/07/03 06:10:05;;;;;;;2.80;2.42;;;28.20;55.20;;;;;;5016141;28;20033;-74
2023/07/03 06:12:30;;;;;;;2.63;2.42;;;28.30;55.20;;;;;;5014550;28;20030;-76
2023/07/03 06:14:57;;;;;;;3.17;2.53;;;28.30;55.10;;;;;;5015784;28;20041;-75
2023/07/03 06:17:24;;;;;;;2.60;2.40;;;28.30;55.00;;;;;;5014783;28;20527;-74
2023/07/03 06:19:50;;;;;;;2.80;2.50;;;28.40;55.00;;;;;;5015860;28;20022;-74
2023/07/03 06:22:16;;;;;;;3.25;2.30;;;28.40;54.90;;;;;;5015834;28;20156;-74
2023/07/03 06:24:42;;;;;;;2.65;2.25;;;28.50;54.90;;;;;;5015831;28;20033;-74
2023/07/03 06:27:07;;;;;;;2.50;2.30;;;28.60;54.90;;;;;;4997967;28;20113;-75
2023/07/03 06:29:34;;;;;;;2.60;2.40;;;28.60;54.80;;;;;;5015631;28;20036;-74
2023/07/03 06:31:59;;;;;;;2.65;2.45;;;28.70;54.80;;;;;;5013984;28;20026;-74
2023/07/03 06:34:25;;;;;;;2.53;2.33;;;28.70;54.70;;;;;;5015736;28;20029;-75
2023/07/03 06:36:51;;;;;;;2.45;2.25;;;28.80;54.70;;;;;;5015494;28;20029;-75
2023/07/03 06:39:17;;;;;;;3.33;2.65;;;28.80;54.60;;;;;;5014102;28;20066;-75
2023/07/03 06:41:43;;;;;;;2.40;2.20;;;28.90;54.60;;;;;;5015095;28;20026;-74
2023/07/03 06:44:16;;;;;;;2.80;2.30;;;29.00;54.60;;;;;;5015058;28;20105;-75
2023/07/03 06:46:43;;;;;;;2.67;2.47;;;29.00;54.50;;;;;;5014004;28;20030;-76
2023/07/03 06:49:09;;;;;;;2.63;2.42;;;29.00;54.40;;;;;;5014250;28;20080;-74
2023/07/03 06:51:36;;;;;;;2.60;2.40;;;29.10;54.40;;;;;;5015867;28;20089;-76
2023/07/03 06:54:02;;;;;;;2.95;2.60;;;29.10;54.30;;;;;;5014833;28;20072;-75
2023/07/03 06:56:30;;;;;;;2.83;2.30;;;29.20;54.30;;;;;;5015105;28;20058;-75
2023/07/03 06:58:56;;;;;;;2.40;2.20;;;29.20;54.20;;;;;;5015175;28;20022;-75
2023/07/03 07:01:24;;;;;;;2.60;2.40;;;29.30;54.20;;;;;;5014811;28;20076;-73
2023/07/03 07:03:50;;;;;;;2.58;2.38;;;29.30;54.20;;;;;;5014815;28;20178;-75
2023/07/03 07:06:22;;;;;;;2.53;2.33;;;29.30;54.10;;;;;;5014908;28;20062;-76
2023/07/03 07:08:48;;;;;;;2.40;2.20;;;29.40;54.10;;;;;;5013601;28;20049;-74
2023/07/03 07:11:18;;;;;;;2.60;2.40;;;29.40;54.10;;;;;;5014774;28;20033;-75
2023/07/03 07:13:45;;;;;;;2.80;2.60;;;29.40;54.00;;;;;;5013395;28;20125;-74
2023/07/03 07:16:22;;;;;;;2.55;2.35;;;29.40;54.00;;;;;;5014592;28;20026;-75
2023/07/03 07:18:55;;;;;;;2.80;2.60;;;29.40;53.90;;;;;;5013607;28;20030;-75
2023/07/03 07:21:21;;;;;;;3.38;2.50;;;29.40;53.90;;;;;;5014625;28;20022;-73
2023/07/03 07:23:51;;;;;;;3.20;2.50;;;29.40;53.90;;;;;;5014547;28;20091;-76
2023/07/03 07:26:18;;;;;;;2.90;2.60;;;29.50;53.90;;;;;;5014329;28;20034;-75
2023/07/03 07:28:43;;;;;;;2.72;2.50;;;29.50;53.80;;;;;;5014568;28;20017;-75
2023/07/03 07:31:09;;;;;;;2.83;2.53;;;29.60;53.90;;;;;;5014754;28;20118;-75
2023/07/03 07:33:34;;;;;;;3.10;2.60;;;29.60;53.80;;;;;;5014328;28;20030;-74
2023/07/03 07:36:00;;;;;;;2.67;2.47;;;29.70;53.70;;;;;;5014457;28;20092;-75
2023/07/03 07:38:26;;;;;;;2.85;2.63;;;29.80;53.70;;;;;;5013791;28;20029;-74
2023/07/03 07:41:02;;;;;;;2.80;2.60;;;29.80;53.60;;;;;;5014415;28;20081;-75
2023/07/03 07:43:27;;;;;;;2.40;2.20;;;29.90;53.50;;;;;;5014774;28;20357;-75
2023/07/03 07:45:53;;;;;;;2.70;2.50;;;29.90;53.40;;;;;;5014261;28;20053;-76
2023/07/03 07:48:19;;;;;;;2.72;2.53;;;30.00;53.30;;;;;;5014203;28;20372;-78
2023/07/03 07:50:45;;;;;;;3.08;2.30;;;30.00;53.20;;;;;;5014182;28;20030;-75
2023/07/03 07:53:10;;;;;;;2.50;2.30;;;30.10;53.20;;;;;;5014097;28;20100;-74
2023/07/03 07:55:37;;;;;;;2.50;2.30;;;30.10;53.10;;;;;;5013874;28;20038;-74
2023/07/03 07:58:03;;;;;;;2.92;2.08;;;30.20;53.10;;;;;;5014678;28;20350;-75
2023/07/03 08:00:29;;;;;;;2.50;2.30;;;30.20;53.00;;;;;;5012532;28;20034;-76
2023/07/03 08:02:57;;;;;;;2.78;2.45;;;30.20;52.90;;;;;;5014043;28;20053;-76
2023/07/03 08:05:23;;;;;;;2.45;2.25;;;30.30;52.90;;;;;;5013823;28;20026;-75
2023/07/03 08:07:48;;;;;;;2.53;2.33;;;30.30;52.80;;;;;;5013731;28;20029;-75
2023/07/03 08:10:14;;;;;;;2.67;2.47;;;30.30;52.70;;;;;;5013407;28;20018;-75
2023/07/03 08:12:40;;;;;;;2.60;2.40;;;30.40;52.70;;;;;;5013790;28;20077;-75
2023/07/03 08:15:07;;;;;;;2.40;2.20;;;30.40;52.60;;;;;;5014066;28;20045;-76
2023/07/03 08:17:33;;;;;;;2.30;2.10;;;30.50;52.60;;;;;;5012516;28;20041;-75
2023/07/03 08:19:59;;;;;;;2.40;2.20;;;30.60;52.60;;;;;;5013752;28;20030;-74
2023/07/03 08:22:25;;;;;;;2.40;2.20;;;30.50;52.40;;;;;;5013362;28;20033;-79
2023/07/03 08:24:51;;;;;;;2.40;2.20;;;30.60;52.40;;;;;;5014463;28;20419;-75
2023/07/03 08:27:16;;;;;;;2.22;2.08;;;30.60;52.40;;;;;;5013618;28;20109;-75
2023/07/03 08:29:42;;;;;;;2.10;2.00;;;30.60;52.30;;;;;;5013874;28;20152;-74
2023/07/03 08:32:10;;;;;;;2.40;2.20;;;30.70;52.30;;;;;;5013813;28;20026;-74
2023/07/03 08:34:36;;;;;;;2.30;2.10;;;30.70;52.20;;;;;;5013473;28;20056;-75
2023/07/03 08:37:02;;;;;;;2.50;2.22;;;30.70;52.20;;;;;;5013260;28;20036;-75
2023/07/03 08:39:28;;;;;;;2.90;2.50;;;30.70;52.20;;;;;;5012260;28;20387;-75
2023/07/03 08:42:06;;;;;;;2.60;2.40;;;30.70;52.20;;;;;;5013413;28;20026;-75
2023/07/03 08:44:32;;;;;;;2.55;2.30;;;30.70;52.10;;;;;;5013292;28;20058;-74
2023/07/03 08:47:03;;;;;;;3.42;2.30;;;30.80;52.10;;;;;;5013634;28;20372;-73
2023/07/03 08:49:30;;;;;;;2.45;2.25;;;30.80;52.10;;;;;;5013265;28;20090;-74
2023/07/03 08:51:59;;;;;;;2.60;2.13;;;30.90;52.10;;;;;;5015431;28;20480;-74
2023/07/03 08:54:29;;;;;;;2.50;2.30;;;30.90;52.00;;;;;;5016112;28;20436;-75
2023/07/03 08:56:57;;;;;;;2.70;2.22;;;31.00;51.90;;;;;;5032669;28;20022;-75
2023/07/03 08:59:23;;;;;;;2.67;2.20;;;31.10;51.90;;;;;;5017183;28;20109;-74
2023/07/03 09:01:59;;;;;;;2.35;2.08;;;31.10;51.70;;;;;;5017399;28;20104;-74
2023/07/03 09:04:53;;;;;;;2.30;2.10;;;31.10;51.70;;;;;;5015837;28;20491;-74
2023/07/03 09:07:33;;;;;;;2.65;2.25;;;31.20;51.60;;;;;;5017348;28;20022;-74
2023/07/03 09:10:13;;;;;;;2.13;2.00;;;31.20;51.60;;;;;;5016137;28;20030;-74
2023/07/03 09:12:55;;;;;;;2.08;1.90;;;31.30;51.60;;;;;;5017118;28;20386;-73
2023/07/03 09:15:55;;;;;;;2.70;2.50;;;31.30;51.60;;;;;;5017127;28;20456;-74
2023/07/03 09:18:26;;;;;;;2.50;2.30;;;31.20;51.50;;;;;;5017441;28;20030;-74
2023/07/03 09:20:52;;;;;;;2.38;2.17;;;31.30;51.70;;;;;;5016812;28;20021;-75
2023/07/03 09:23:26;;;;;;;2.47;2.28;;;31.30;51.60;;;;;;5017495;28;20034;-75
2023/07/03 09:25:56;;;;;;;;;;;31.30;51.60;;;;;;5015905;28;20026;-75
2023/07/03 09:28:22;;;;;;;2.20;2.00;;;31.30;51.50;;;;;;5016881;28;19912;-74
2023/07/03 09:30:48;;;;;;;2.28;2.08;;;31.40;51.60;;;;;;5015396;28;20137;-75
2023/07/03 09:33:13;;;;;;;2.30;2.10;;;31.40;51.50;;;;;;5016466;28;20113;-74
2023/07/03 09:35:40;;;;;;;2.40;2.20;;;31.40;51.50;;;;;;5016796;28;20037;-74
2023/07/03 09:38:12;;;;;;;2.28;2.08;;;31.30;51.50;;;;;;5016829;28;20021;-74
2023/07/03 09:40:41;;;;;;;2.50;2.30;;;31.30;51.50;;;;;;5016561;28;20368;-75
2023/07/03 09:43:33;;;;;;;2.67;2.10;;;31.30;51.60;;;;;;5016844;28;20040;-74
2023/07/03 09:46:10;;;;;;;2.30;2.10;;;31.20;51.50;;;;;;5012143;28;20049;-75
2023/07/03 09:48:36;;;;;;;2.50;2.30;;;31.10;51.60;;;;;;5014483;28;20030;-74
2023/07/03 09:51:26;;;;;;;2.03;1.92;;;31.10;51.70;;;;;;5015459;28;20099;-75
2023/07/03 09:53:53;;;;;;;2.40;2.20;;;31.00;51.60;;;;;;5012332;28;20414;-75
2023/07/03 09:56:24;;;;;;;2.40;2.20;;;31.00;51.80;;;;;;5015153;28;20113;-75
2023/07/03 09:58:54;;;;;;;2.10;1.90;;;30.90;51.70;;;;;;5013724;28;20037;-75
2023/07/03 10:01:27;;;;;;;2.17;1.98;;;30.90;51.70;;;;;;5014888;28;20029;-76
2023/07/03 10:04:11;;;;;;;2.87;2.27;;;30.90;51.70;;;;;;5015101;28;20527;-75
2023/07/03 10:06:38;;;;;;;2.78;2.17;;;30.80;51.70;;;;;;5014730;28;20053;-75
2023/07/03 10:09:09;;;;;;;2.30;2.10;;;30.80;51.70;;;;;;5014557;28;20034;-75
2023/07/03 10:11:51;;;;;;;2.50;2.30;;;30.70;51.70;;;;;;4997657;28;20030;-74
2023/07/03 10:14:25;;;;;;;2.25;2.05;;;30.70;51.60;;;;;;5014546;28;20526;-75
2023/07/03 10:16:52;;;;;;;2.47;2.28;;;30.70;51.70;;;;;;5029894;28;20034;-75
2023/07/03 10:19:20;;;;;;;2.35;2.15;;;30.70;51.70;;;;;;5014611;28;20380;-75
2023/07/03 10:21:47;;;;;;;2.40;2.20;;;30.70;51.60;;;;;;5014592;28;20385;-75
2023/07/03 10:24:13;;;;;;;2.30;2.10;;;30.60;51.60;;;;;;5014829;28;20029;-76
2023/07/03 10:26:47;;;;;;;2.42;2.22;;;30.60;51.60;;;;;;5014947;28;20108;-75
2023/07/03 10:29:25;;;;;;;2.60;2.30;;;30.60;51.50;;;;;;5015176;28;20029;-75
2023/07/03 10:31:59;;;;;;;2.17;2.00;;;30.60;51.50;;;;;;5013431;28;20033;-75
2023/07/03 10:35:01;;;;;;;2.28;2.08;;;30.60;51.50;;;;;;5014755;28;20445;-74
2023/07/03 10:37:28;;;;;;;2.20;2.00;;;30.60;51.40;;;;;;5014664;28;20476;-75
2023/07/03 10:39:59;;;;;;;2.22;2.08;;;30.60;51.40;;;;;;5014804;28;20121;-75
2023/07/03 10:42:38;;;;;;;2.17;1.98;;;30.70;51.40;;;;;;5013228;28;20038;-74
2023/07/03 10:45:11;;;;;;;2.95;2.00;;;30.70;51.40;;;;;;4973500;28;1185911;-76
2023/07/03 10:48:00;;;;;;;2.55;2.15;;;30.70;51.50;;;;;;5015336;28;20036;-74
2023/07/03 10:50:51;;;;;;;2.40;2.20;;;30.80;51.60;;;;;;5012016;28;20130;-75
2023/07/03 10:53:52;;;;;;;2.40;2.20;;;30.80;51.50;;;;;;5004503;28;20088;-75
2023/07/03 10:56:32;;;;;;;2.40;2.20;;;30.90;51.60;;;;;;5014203;28;20034;-74
2023/07/03 10:59:26;;;;;;;2.30;2.10;;;30.90;51.60;;;;;;5014250;28;20037;-74
2023/07/03 11:02:02;;;;;;;3.38;2.30;;;31.00;51.70;;;;;;5009354;28;20034;-75
2023/07/03 11:05:02;;;;;;;2.33;2.13;;;31.10;51.70;;;;;;5014115;28;20348;-74
2023/07/03 11:07:37;;;;;;;2.30;2.10;;;31.10;51.70;;;;;;5014422;28;20382;-75
2023/07/03 11:10:29;;;;;;;2.67;2.17;;;31.10;51.60;;;;;;5014395;28;20026;-75
2023/07/03 11:13:20;;;;;;;2.35;2.10;;;31.20;51.60;;;;;;5013468;28;20037;-74
2023/07/03 11:15:55;;;;;;;2.15;2.05;;;31.20;51.50;;;;;;5014421;28;20038;-74
2023/07/03 11:18:42;;;;;;;2.83;2.50;;;31.30;51.50;;;;;;5013986;28;20040;-74
2023/07/03 11:21:47;;;;;;;2.65;2.25;;;31.30;51.50;;;;;;5014090;28;20121;-75
2023/07/03 11:24:43;;;;;;;2.88;2.30;;;31.30;51.40;;;;;;5013863;28;20037;-75
2023/07/03 11:27:21;;;;;;;2.50;2.30;;;31.30;51.40;;;;;;5010550;28;20065;-74
2023/07/03 11:29:48;;;;;;;2.42;2.22;;;31.30;51.40;;;;;;5013810;28;20030;-74
2023/07/03 11:32:15;;;;;;;2.58;2.38;;;31.30;51.40;;;;;;5013664;28;20026;-74
2023/07/03 11:34:41;;;;;;;2.45;2.25;;;31.30;51.50;;;;;;5013889;28;20026;-74
2023/07/03 11:37:43;;;;;;;3.00;2.38;;;31.30;51.40;;;;;;5014021;28;20166;-75
2023/07/03 11:40:33;;;;;;;2.30;2.10;;;31.30;51.40;;;;;;5013644;28;20108;-75
2023/07/03 11:43:19;;;;;;;2.50;2.30;;;31.40;51.40;;;;;;5013778;28;20147;-74
2023/07/03 11:45:56;;;;;;;2.42;2.20;;;31.40;51.40;;;;;;5013695;28;20097;-73
2023/07/03 11:48:30;;;;;;;2.60;2.40;;;31.50;51.50;;;;;;5013798;28;20029;-74
2023/07/03 11:51:04;;;;;;;2.35;2.15;;;31.50;51.40;;;;;;5013373;28;20029;-74
2023/07/03 11:53:52;;;;;;;2.10;2.00;;;31.50;51.40;;;;;;5013465;28;20037;-74
2023/07/03 11:56:36;;;;;;;2.20;2.00;;;31.50;51.40;;;;;;5013577;28;20033;-75
2023/07/03 11:59:32;;;;;;;2.67;2.25;;;31.60;51.40;;;;;;5013244;28;20472;-74
2023/07/03 12:02:26;;;;;;;2.78;2.40;;;31.50;51.30;;;;;;5013056;28;20388;-75
2023/07/03 12:04:53;;;;;;;2.40;2.20;;;31.50;51.30;;;;;;5011167;28;20045;-75
2023/07/03 12:07:19;;;;;;;2.65;2.22;;;31.50;51.40;;;;;;5013025;28;20372;-74
2023/07/03 12:09:45;;;;;;;2.67;2.30;;;31.40;51.40;;;;;;5013336;28;20030;-74
2023/07/03 12:12:26;;;;;;;2.50;2.30;;;31.40;51.50;;;;;;5013652;28;20030;-76
2023/07/03 12:15:01;;;;;;;3.17;2.60;;;31.40;51.50;;;;;;5013087;28;20377;-75
2023/07/03 12:17:28;;;;;;;3.63;2.40;;;31.40;51.50;;;;;;5013045;28;20092;-75
2023/07/03 12:20:17;;;;;;;2.60;2.40;;;31.50;51.60;;;;;;5012921;28;20439;-74
2023/07/03 12:22:48;;;;;;;3.80;2.60;;;31.50;51.60;;;;;;5010474;28;20041;-75
2023/07/03 12:25:28;;;;;;;2.80;2.60;;;31.50;51.50;;;;;;5012905;28;20061;-75
2023/07/03 12:28:08;;;;;;;3.90;2.50;;;31.50;51.40;;;;;;5012833;28;20018;-73
2023/07/03 12:30:34;;;;;;;2.53;2.33;;;31.60;51.40;;;;;;5012951;28;20028;-75
2023/07/03 12:33:01;;;;;;;3.47;2.90;;;31.60;51.30;;;;;;5012807;28;20088;-75
2023/07/03 12:35:42;;;;;;;2.90;2.60;;;31.60;51.40;;;;;;5013181;28;20022;-74
2023/07/03 12:38:09;;;;;;;2.70;2.50;;;31.60;51.30;;;;;;5011408;28;20033;-75
2023/07/03 12:40:46;;;;;;;2.97;2.75;;;31.70;51.40;;;;;;5011407;28;20026;-75
2023/07/03 12:43:15;;;;;;;2.72;2.53;;;31.70;51.30;;;;;;5013102;28;20125;-75
2023/07/03 12:45:41;;;;;;;4.25;2.92;;;31.70;51.20;;;;;;5012697;28;20065;-75
2023/07/03 12:48:09;;;;;;;3.50;3.20;;;31.80;51.10;;;;;;5012628;28;20030;-75
2023/07/03 12:50:44;;;;;;;3.50;3.20;;;31.90;51.10;;;;;;5012603;28;20030;-75
2023/07/03 12:53:10;;;;;;;3.45;3.15;;;32.00;50.90;;;;;;5012425;28;20123;-76
2023/07/03 12:55:37;;;;;;;3.50;3.20;;;32.10;50.80;;;;;;5012663;28;20034;-75
2023/07/03 12:58:05;;;;;;;3.90;3.40;;;32.20;50.70;;;;;;5012491;28;20480;-75
2023/07/03 13:00:33;;;;;;;3.70;3.40;;;32.30;50.50;;;;;;5012707;28;20388;-75
2023/07/03 13:03:04;;;;;;;3.60;3.30;;;32.40;50.40;;;;;;5012857;28;20558;-74